createdAt,value
2018-04-23T00:01:39.077Z,13.40
2018-04-23T00:04:06.625Z,13.60
2018-04-23T00:06:34.186Z,13.70
2018-04-23T00:09:01.722Z,13.80
2018-04-23T00:11:29.270Z,13.90
2018-04-23T00:13:57.267Z,13.90
2018-04-23T00:16:39.802Z,14.00
2018-04-23T01:13:55.959Z,12.90
2018-04-23T01:16:23.503Z,12.90
2018-04-23T01:19:07.963Z,13.00
2018-04-23T03:20:11.103Z,13.70
2018-04-23T03:25:32.338Z,13.60
2018-04-23T03:28:02.962Z,13.60
2018-04-23T03:30:30.497Z,13.60
2018-04-23T03:32:58.035Z,13.50
2018-04-23T03:35:25.612Z,13.50
2018-04-23T03:37:53.155Z,13.60
2018-04-23T03:40:20.703Z,13.60
2018-04-23T03:42:48.249Z,13.70
2018-04-23T03:45:16.559Z,13.70
2018-04-23T03:47:44.103Z,13.70
2018-04-23T03:50:11.639Z,13.50
2018-04-23T03:52:39.930Z,13.60
2018-04-23T03:55:07.464Z,13.60
2018-04-23T03:57:35.004Z,13.60
2018-04-23T04:00:05.571Z,13.60
2018-04-23T04:02:33.870Z,13.70
2018-04-23T04:05:01.415Z,13.70
2018-04-23T04:07:28.953Z,13.70
2018-04-23T04:09:56.491Z,13.70
2018-04-23T04:15:28.873Z,13.60
2018-04-23T04:20:50.172Z,13.40
2018-04-23T05:14:58.316Z,13.60
2018-04-23T05:17:26.667Z,13.60
2018-04-23T05:19:54.213Z,13.60
2018-04-23T05:22:21.758Z,13.60
2018-04-23T05:24:49.405Z,13.60
2018-04-23T05:27:20.135Z,13.70
2018-04-23T05:29:47.681Z,13.80
2018-04-23T05:32:16.086Z,14.00
2018-04-23T05:34:43.672Z,13.90
2018-04-23T05:37:11.268Z,14.10
2018-04-23T05:39:39.580Z,14.20
2018-04-23T05:42:07.126Z,14.20
2018-04-23T05:44:34.712Z,14.30
2018-04-23T05:47:02.294Z,14.30
2018-04-23T05:49:29.835Z,14.30
2018-04-23T05:51:57.368Z,14.40
2018-04-23T05:54:24.964Z,14.40
2018-04-23T05:56:52.521Z,14.50
2018-04-23T05:59:23.156Z,14.70
2018-04-23T06:01:50.683Z,14.80
2018-04-23T06:04:18.222Z,14.90
2018-04-23T06:06:46.522Z,15.00
2018-04-23T06:09:14.069Z,15.00
2018-04-23T06:11:42.363Z,15.10
2018-04-23T06:14:09.991Z,15.10
2018-04-23T06:16:38.328Z,15.20
2018-04-23T06:25:05.321Z,15.30
2018-04-23T06:27:32.874Z,15.40
2018-04-23T06:30:00.417Z,15.50
2018-04-23T06:32:27.970Z,15.50
2018-04-23T06:34:55.520Z,15.60
2018-04-23T06:37:23.055Z,15.70
2018-04-23T06:39:50.599Z,15.70
2018-04-23T06:42:18.145Z,15.70
2018-04-23T06:44:45.685Z,15.70
2018-04-23T06:47:13.232Z,15.80
2018-04-23T06:49:40.778Z,15.80
2018-04-23T06:52:11.413Z,15.90
2018-04-23T06:54:38.943Z,16.00
2018-04-23T06:57:06.488Z,16.10
2018-04-23T06:59:34.037Z,16.30
2018-04-23T07:02:01.572Z,16.40
2018-04-23T07:04:29.227Z,16.60
2018-04-23T07:06:56.764Z,16.70
2018-04-23T07:09:25.063Z,16.80
2018-04-23T07:11:52.603Z,16.80
2018-04-23T07:20:21.971Z,16.90
2018-04-23T07:23:10.442Z,16.80
2018-04-23T07:25:38.009Z,16.90
2018-04-23T07:28:06.579Z,16.90
2018-04-23T07:30:34.114Z,16.80
2018-04-23T07:33:01.668Z,16.80
2018-04-23T07:35:29.220Z,16.90
2018-04-23T07:37:57.531Z,17.10
2018-04-23T07:40:25.075Z,17.00
2018-04-23T07:42:52.622Z,17.10
2018-04-23T07:45:20.929Z,17.20
2018-04-23T07:47:48.494Z,17.20
2018-04-23T07:50:19.144Z,17.20
2018-04-23T07:52:46.687Z,17.10
2018-04-23T07:55:14.224Z,16.90
2018-04-23T07:57:41.777Z,16.90
2018-04-23T08:00:09.324Z,16.80
2018-04-23T08:02:37.624Z,17.00
2018-04-23T08:05:05.623Z,17.00
2018-04-23T08:07:36.281Z,17.10
2018-04-23T08:10:03.829Z,17.20
2018-04-23T08:12:31.857Z,17.10
2018-04-23T08:17:52.402Z,16.80
2018-04-23T08:20:22.928Z,16.70
2018-04-23T08:26:05.568Z,16.90
2018-04-23T08:28:44.203Z,16.80
2018-04-23T08:56:22.660Z,17.20
2018-04-23T08:58:56.080Z,17.20
2018-04-23T09:01:23.686Z,17.10
2018-04-23T09:03:51.705Z,17.00
2018-04-23T09:06:19.286Z,16.90
2018-04-23T09:08:46.836Z,17.00
2018-04-23T09:11:14.382Z,16.80
2018-04-23T09:13:41.944Z,16.90
2018-04-23T09:16:09.562Z,17.40
2018-04-23T09:18:37.257Z,17.50
2018-04-23T09:24:01.111Z,17.10
2018-04-23T10:15:37.596Z,15.40
2018-04-23T10:18:05.158Z,15.50
2018-04-23T10:28:13.009Z,15.50
2018-04-23T10:30:40.544Z,15.50
2018-04-23T10:33:08.084Z,15.70
2018-04-23T10:35:35.627Z,15.90
2018-04-23T10:38:04.057Z,16.30
2018-04-23T10:40:31.635Z,16.20
2018-04-23T10:42:59.226Z,16.20
2018-04-23T10:45:27.571Z,15.90
2018-04-23T10:47:55.120Z,15.80
2018-04-23T10:50:22.647Z,15.70
2018-04-23T10:52:50.182Z,15.60
2018-04-23T10:55:17.732Z,15.30
2018-04-23T10:57:48.352Z,15.40
2018-04-23T11:00:15.881Z,15.40
2018-04-23T11:02:43.413Z,15.30
2018-04-23T11:05:10.942Z,15.40
2018-04-23T11:07:38.480Z,15.60
2018-04-23T11:10:06.016Z,15.60
2018-04-23T11:12:33.552Z,15.60
2018-04-23T11:15:01.084Z,15.50
2018-04-23T11:17:29.418Z,15.60
2018-04-23T11:19:57.027Z,15.60
2018-04-23T11:22:37.705Z,15.80
2018-04-23T11:28:02.096Z,16.20
2018-04-23T11:30:29.643Z,16.40
2018-04-23T11:32:57.189Z,17.00
2018-04-23T11:35:24.729Z,17.70
2018-04-23T11:37:52.270Z,18.50
2018-04-23T11:40:19.803Z,19.30
2018-04-23T11:42:48.050Z,19.60
2018-04-23T11:45:15.587Z,19.50
2018-04-23T11:47:43.129Z,19.10
2018-04-23T11:50:10.674Z,19.60
2018-04-23T11:52:38.221Z,19.80
2018-04-23T11:55:09.077Z,19.70
2018-04-23T11:57:36.680Z,19.80
2018-04-23T12:00:04.360Z,20.00
2018-04-23T12:02:31.995Z,19.90
2018-04-23T12:04:59.547Z,19.40
2018-04-23T12:07:27.131Z,19.10
2018-04-23T12:09:54.700Z,19.50
2018-04-23T12:12:24.351Z,19.40
2018-04-23T12:26:14.896Z,19.40
2018-04-23T12:28:49.823Z,19.10
2018-04-23T12:31:17.436Z,19.00
2018-04-23T12:33:44.993Z,18.50
2018-04-23T12:36:12.559Z,19.20
2018-04-23T12:38:40.123Z,18.90
2018-04-23T12:41:08.592Z,18.70
2018-04-23T12:43:36.154Z,18.10
2018-04-23T12:46:03.784Z,17.80
2018-04-23T12:48:31.321Z,18.50
2018-04-23T12:51:02.668Z,18.60
2018-04-23T12:53:30.190Z,19.00
2018-04-23T12:55:57.763Z,18.80
2018-04-23T12:58:25.346Z,18.60
2018-04-23T13:00:53.036Z,17.80
2018-04-23T13:03:21.366Z,17.60
2018-04-23T13:05:49.566Z,17.60
2018-04-23T13:08:17.914Z,18.20
2018-04-23T13:10:45.475Z,18.20
2018-04-23T13:13:13.051Z,17.90
2018-04-23T13:27:36.107Z,18.40
2018-04-23T13:30:03.667Z,19.10
2018-04-23T13:32:31.227Z,18.70
2018-04-23T13:34:58.782Z,19.00
2018-04-23T13:37:26.338Z,18.90
2018-04-23T13:39:53.949Z,19.60
2018-04-23T13:42:21.507Z,19.70
2018-04-23T13:44:49.150Z,19.40
2018-04-23T13:47:17.492Z,19.60
2018-04-23T13:49:45.040Z,19.60
2018-04-23T13:52:12.619Z,19.90
2018-04-23T13:54:40.172Z,20.10
2018-04-23T13:57:10.976Z,19.60
2018-04-23T13:59:38.572Z,19.30
2018-04-23T14:02:06.133Z,18.60
2018-04-23T14:04:33.704Z,19.00
2018-04-23T14:07:01.294Z,19.20
2018-04-23T14:09:28.868Z,19.70
2018-04-23T14:11:56.418Z,19.60
2018-04-23T14:20:20.605Z,19.70
2018-04-23T14:22:48.159Z,19.70
2018-04-23T14:25:19.082Z,19.80
2018-04-23T14:27:46.647Z,20.00
2018-04-23T14:30:14.212Z,19.00
2018-04-23T14:32:41.801Z,17.90
2018-04-23T14:35:09.363Z,17.50
2018-04-23T14:37:37.804Z,17.20
2018-04-23T14:40:05.486Z,17.20
2018-04-23T14:42:33.135Z,18.20
2018-04-23T14:45:00.695Z,18.30
2018-04-23T14:47:28.267Z,17.80
2018-04-23T14:49:55.834Z,17.90
2018-04-23T14:52:29.318Z,18.60
2018-04-23T14:54:56.911Z,19.00
2018-04-23T14:57:24.490Z,19.00
2018-04-23T14:59:52.055Z,19.20
2018-04-23T15:02:19.607Z,19.30
2018-04-23T15:04:47.943Z,19.20
2018-04-23T15:07:15.509Z,19.10
2018-04-23T15:09:43.073Z,19.30
2018-04-23T15:12:10.655Z,19.20
2018-04-23T15:17:36.023Z,19.40
2018-04-23T15:20:07.072Z,19.60
2018-04-23T15:28:32.183Z,19.60
2018-04-23T15:31:00.494Z,19.50
2018-04-23T15:33:28.058Z,19.50
2018-04-23T15:35:58.930Z,19.00
2018-04-23T15:38:26.508Z,19.30
2018-04-23T15:40:54.834Z,19.40
2018-04-23T15:43:22.400Z,19.40
2018-04-23T15:45:49.945Z,19.40
2018-04-23T15:48:17.519Z,19.30
2018-04-23T15:50:49.319Z,19.00
2018-04-23T15:53:17.740Z,19.20
2018-04-23T15:55:48.493Z,19.10
2018-04-23T15:58:16.148Z,19.00
2018-04-23T16:00:43.711Z,18.90
2018-04-23T16:03:11.307Z,18.60
2018-04-23T16:05:38.855Z,18.70
2018-04-23T16:08:06.419Z,18.10
2018-04-23T16:10:34.670Z,18.20
2018-04-23T16:13:05.448Z,18.10
2018-04-23T16:24:13.305Z,17.60
2018-04-23T16:26:40.881Z,17.60
2018-04-23T16:29:12.150Z,17.20
2018-04-23T16:31:39.713Z,16.90
2018-04-23T16:34:07.329Z,16.50
2018-04-23T16:36:34.946Z,16.00
2018-04-23T16:39:02.554Z,15.60
2018-04-23T16:41:30.153Z,15.50
2018-04-23T16:43:59.346Z,15.30
2018-04-23T16:46:29.475Z,15.20
2018-04-23T17:01:55.339Z,15.90
2018-04-23T17:04:22.930Z,14.60
2018-04-23T17:06:51.264Z,14.60
2018-04-23T17:09:18.872Z,14.60
2018-04-23T17:11:46.455Z,14.40
2018-04-23T17:14:14.420Z,14.40
2018-04-23T17:16:42.009Z,14.40
2018-04-23T17:19:09.623Z,14.30
2018-04-23T19:14:18.680Z,12.00
2018-04-23T19:16:47.216Z,11.90
2018-04-23T19:27:54.320Z,11.40
2018-04-23T19:30:25.162Z,11.40
2018-04-23T19:32:52.783Z,11.30
2018-04-23T19:35:20.398Z,11.30
2018-04-23T19:37:48.920Z,11.20
2018-04-23T19:40:16.542Z,11.10
2018-04-23T19:42:44.155Z,11.10
2018-04-23T19:45:11.808Z,11.10
2018-04-23T19:47:40.202Z,11.00
2018-04-23T19:50:07.829Z,11.00
2018-04-23T19:52:42.106Z,11.00
2018-04-23T19:55:09.709Z,11.00
2018-04-23T19:57:37.681Z,11.10
2018-04-23T20:18:47.470Z,11.00
2018-04-23T20:21:15.065Z,10.90
2018-04-23T20:23:42.645Z,10.90
2018-04-23T20:26:13.474Z,10.90
2018-04-23T20:28:41.070Z,11.00
2018-04-23T20:31:08.676Z,11.00
2018-04-23T20:33:36.257Z,11.00
2018-04-23T20:36:03.820Z,11.10
2018-04-23T20:38:31.381Z,11.10
2018-04-23T20:40:58.942Z,11.00
2018-04-23T20:43:26.495Z,10.90
2018-04-23T20:45:54.059Z,10.90
2018-04-23T20:48:22.325Z,11.00
2018-04-23T20:50:52.969Z,11.00
2018-04-23T20:53:20.546Z,10.90
2018-04-23T20:55:48.096Z,11.00
2018-04-23T20:58:15.653Z,10.90
2018-04-23T21:00:43.203Z,10.80
2018-04-23T21:03:10.795Z,10.80
2018-04-23T21:05:38.361Z,10.70
2018-04-23T21:08:10.050Z,10.50
2018-04-23T21:10:37.607Z,10.50
2018-04-23T21:16:00.874Z,10.40
2018-04-23T21:18:28.433Z,10.30
2018-04-23T21:20:55.988Z,10.40
2018-04-23T21:23:24.288Z,10.20
2018-04-23T21:25:54.974Z,10.30
2018-04-23T21:28:22.458Z,10.20
2018-04-23T21:30:49.990Z,10.20
2018-04-23T21:33:17.534Z,10.10
2018-04-23T21:35:45.093Z,10.00
2018-04-23T21:38:12.635Z,10.00
2018-04-23T21:40:40.160Z,10.00
2018-04-23T21:43:07.680Z,9.90
2018-04-23T21:45:35.199Z,9.80
2018-04-23T21:48:02.726Z,9.80
2018-04-23T21:50:31.030Z,9.70
2018-04-23T21:52:58.637Z,9.70
2018-04-23T21:55:31.966Z,9.70
2018-04-23T21:57:59.630Z,9.70
2018-04-23T22:00:27.165Z,9.70
2018-04-23T22:02:54.715Z,9.70
2018-04-23T22:05:22.283Z,9.70
2018-04-23T22:07:49.807Z,9.60
2018-04-23T22:10:17.349Z,9.50
2018-04-23T22:12:44.905Z,9.50
2018-04-23T22:26:59.449Z,9.40
2018-04-23T22:29:26.984Z,9.50
2018-04-23T22:31:55.326Z,9.50
2018-04-23T22:34:22.848Z,9.50
2018-04-23T22:36:50.389Z,9.40
2018-04-23T22:39:17.941Z,9.40
2018-04-23T22:41:45.467Z,9.30
2018-04-23T22:44:13.013Z,9.30
2018-04-23T22:46:40.565Z,9.30
2018-04-23T22:49:08.124Z,9.30
2018-04-23T22:51:35.667Z,9.20
2018-04-23T22:54:03.194Z,9.20
2018-04-23T22:56:33.841Z,9.30
2018-04-23T22:59:01.366Z,9.20
2018-04-23T23:01:28.885Z,9.20
2018-04-23T23:03:56.421Z,9.10
2018-04-23T23:06:23.973Z,9.10
2018-04-23T23:08:51.504Z,9.10
2018-04-23T23:11:19.038Z,9.00
2018-04-23T23:19:35.166Z,9.10
2018-04-23T23:22:16.904Z,9.10
2018-04-23T23:24:44.461Z,9.00
2018-04-23T23:27:16.349Z,9.00
2018-04-23T23:29:43.898Z,9.00
2018-04-23T23:32:11.456Z,9.00
2018-04-23T23:34:38.990Z,8.90
2018-04-23T23:37:06.523Z,8.90
2018-04-23T23:39:34.073Z,8.80
2018-04-23T23:42:01.603Z,8.80
2018-04-23T23:44:29.131Z,8.70
2018-04-23T23:46:56.661Z,8.70
2018-04-23T23:49:24.260Z,8.70
2018-04-23T23:51:51.794Z,8.80
2018-04-23T23:54:22.492Z,8.70
2018-04-23T23:56:50.026Z,8.80
2018-04-23T23:59:18.115Z,8.80
